sensor_id;sensor_type;location;lat;lon;timestamp;noise_LAeq;noise_LA_min;noise_LA_max;noise_LA01;noise_LA95
69668;Laerm;66534;52.370;4.832;2024-01-25T00:00:22;46.17;41.14;55.62;;
69668;Laerm;66534;52.370;4.832;2024-01-25T00:00:52;42.65;39.54;46.87;;
69668;Laerm;66534;52.370;4.832;2024-01-25T00:01:22;44.14;41.09;49.11;;
69668;Laerm;66534;52.370;4.832;2024-01-25T00:01:53;48.86;42.54;57.62;;
69668;Laerm;66534;52.370;4.832;2024-01-25T00:02:24;49.69;40.21;62.53;;
69668;Laerm;66534;52.370;4.832;2024-01-25T00:02:54;55.49;43.55;68.82;;
69668;Laerm;66534;52.370;4.832;2024-01-25T00:03:24;48.12;43.94;56.48;;
69668;Laerm;66534;52.370;4.832;2024-01-25T00:03:54;46.61;42.82;56.29;;
69668;Laerm;66534;52.370;4.832;2024-01-25T00:04:25;46.77;41.78;54.67;;
69668;Laerm;66534;52.370;4.832;2024-01-25T00:04:56;45.92;40.58;55.50;;
69668;Laerm;66534;52.370;4.832;2024-01-25T00:05:26;45.51;40.74;57.49;;
69668;Laerm;66534;52.370;4.832;2024-01-25T00:05:56;42.41;39.46;51.37;;
69668;Laerm;66534;52.370;4.832;2024-01-25T00:06:28;42.57;39.21;46.01;;
69668;Laerm;66534;52.370;4.832;2024-01-25T00:06:58;46.26;41.67;59.36;;
69668;Laerm;66534;52.370;4.832;2024-01-25T00:07:28;43.05;40.57;49.09;;
69668;Laerm;66534;52.370;4.832;2024-01-25T00:07:59;43.29;38.52;55.86;;
69668;Laerm;66534;52.370;4.832;2024-01-25T00:08:29;42.31;39.01;47.86;;
69668;Laerm;66534;52.370;4.832;2024-01-25T00:08:59;42.76;38.71;50.54;;
69668;Laerm;66534;52.370;4.832;2024-01-25T00:09:31;42.33;37.79;50.89;;
69668;Laerm;66534;52.370;4.832;2024-01-25T00:10:01;43.71;39.46;51.16;;
69668;Laerm;66534;52.370;4.832;2024-01-25T00:10:31;48.08;39.61;56.50;;
69668;Laerm;66534;52.370;4.832;2024-01-25T00:11:02;42.91;39.58;47.42;;
69668;Laerm;66534;52.370;4.832;2024-01-25T00:11:32;40.56;37.86;49.87;;
69668;Laerm;66534;52.370;4.832;2024-01-25T00:12:03;41.65;37.49;49.26;;
69668;Laerm;66534;52.370;4.832;2024-01-25T00:12:34;44.29;37.49;60.41;;
69668;Laerm;66534;52.370;4.832;2024-01-25T00:13:04;45.13;40.01;52.85;;
69668;Laerm;66534;52.370;4.832;2024-01-25T00:13:34;42.55;39.85;48.54;;
69668;Laerm;66534;52.370;4.832;2024-01-25T00:14:05;40.51;38.48;48.46;;
69668;Laerm;66534;52.370;4.832;2024-01-25T00:14:35;41.80;38.39;46.33;;
69668;Laerm;66534;52.370;4.832;2024-01-25T00:15:05;42.41;39.48;47.61;;
69668;Laerm;66534;52.370;4.832;2024-01-25T00:15:35;43.97;40.59;49.94;;
69668;Laerm;66534;52.370;4.832;2024-01-25T00:16:06;44.43;40.66;60.06;;
69668;Laerm;66534;52.370;4.832;2024-01-25T00:16:43;43.84;38.41;53.23;;
69668;Laerm;66534;52.370;4.832;2024-01-25T00:17:13;42.35;38.76;50.03;;
69668;Laerm;66534;52.370;4.832;2024-01-25T00:17:44;42.58;40.36;45.94;;
69668;Laerm;66534;52.370;4.832;2024-01-25T00:18:14;44.14;40.46;50.81;;
69668;Laerm;66534;52.370;4.832;2024-01-25T00:18:44;43.02;39.73;47.09;;
69668;Laerm;66534;52.370;4.832;2024-01-25T00:19:14;42.50;40.03;58.20;;
69668;Laerm;66534;52.370;4.832;2024-01-25T00:19:45;42.89;39.30;50.62;;
69668;Laerm;66534;52.370;4.832;2024-01-25T00:20:15;45.00;41.59;49.96;;
69668;Laerm;66534;52.370;4.832;2024-01-25T00:20:45;54.69;43.86;67.15;;
69668;Laerm;66534;52.370;4.832;2024-01-25T00:21:15;63.65;44.04;77.17;;
69668;Laerm;66534;52.370;4.832;2024-01-25T00:21:46;44.77;40.39;54.35;;
69668;Laerm;66534;52.370;4.832;2024-01-25T00:22:16;43.34;38.37;54.77;;
69668;Laerm;66534;52.370;4.832;2024-01-25T00:22:46;39.89;37.65;43.11;;
69668;Laerm;66534;52.370;4.832;2024-01-25T00:23:16;44.18;37.68;54.54;;
69668;Laerm;66534;52.370;4.832;2024-01-25T00:23:47;43.20;39.11;53.80;;
69668;Laerm;66534;52.370;4.832;2024-01-25T00:24:17;42.56;40.09;48.41;;
69668;Laerm;66534;52.370;4.832;2024-01-25T00:24:47;43.96;38.57;52.00;;
69668;Laerm;66534;52.370;4.832;2024-01-25T00:25:17;39.42;37.45;43.29;;
69668;Laerm;66534;52.370;4.832;2024-01-25T00:25:48;42.03;37.83;47.06;;
69668;Laerm;66534;52.370;4.832;2024-01-25T00:26:18;42.12;39.22;49.40;;
69668;Laerm;66534;52.370;4.832;2024-01-25T00:26:48;45.40;40.28;52.84;;
69668;Laerm;66534;52.370;4.832;2024-01-25T00:27:18;44.69;40.35;53.30;;
69668;Laerm;66534;52.370;4.832;2024-01-25T00:27:49;41.24;37.84;48.87;;
69668;Laerm;66534;52.370;4.832;2024-01-25T00:28:19;40.40;38.11;44.31;;
69668;Laerm;66534;52.370;4.832;2024-01-25T00:28:49;41.78;38.40;47.70;;
69668;Laerm;66534;52.370;4.832;2024-01-25T00:29:19;42.50;39.59;46.53;;
69668;Laerm;66534;52.370;4.832;2024-01-25T00:29:49;41.60;38.35;45.12;;
69668;Laerm;66534;52.370;4.832;2024-01-25T00:30:20;48.39;41.56;57.48;;
69668;Laerm;66534;52.370;4.832;2024-01-25T00:30:50;46.67;40.26;55.59;;
69668;Laerm;66534;52.370;4.832;2024-01-25T00:31:20;47.57;38.80;60.47;;
69668;Laerm;66534;52.370;4.832;2024-01-25T00:31:50;40.84;38.49;47.76;;
69668;Laerm;66534;52.370;4.832;2024-01-25T00:32:21;41.42;37.50;51.52;;
69668;Laerm;66534;52.370;4.832;2024-01-25T00:32:51;41.43;36.91;46.47;;
69668;Laerm;66534;52.370;4.832;2024-01-25T00:33:21;40.58;37.61;46.72;;
69668;Laerm;66534;52.370;4.832;2024-01-25T00:33:52;41.15;38.11;57.74;;
69668;Laerm;66534;52.370;4.832;2024-01-25T00:34:22;44.71;39.15;55.91;;
69668;Laerm;66534;52.370;4.832;2024-01-25T00:34:52;44.88;40.09;59.59;;
69668;Laerm;66534;52.370;4.832;2024-01-25T00:35:23;40.47;37.23;43.87;;
69668;Laerm;66534;52.370;4.832;2024-01-25T00:35:54;40.45;36.68;46.47;;
69668;Laerm;66534;52.370;4.832;2024-01-25T00:36:24;39.77;37.04;49.65;;
69668;Laerm;66534;52.370;4.832;2024-01-25T00:36:55;41.00;37.96;46.88;;
69668;Laerm;66534;52.370;4.832;2024-01-25T00:37:25;42.71;37.43;50.20;;
69668;Laerm;66534;52.370;4.832;2024-01-25T00:37:55;43.66;38.87;54.97;;
69668;Laerm;66534;52.370;4.832;2024-01-25T00:38:26;44.09;38.97;50.67;;
69668;Laerm;66534;52.370;4.832;2024-01-25T00:38:56;40.12;37.56;45.45;;
69668;Laerm;66534;52.370;4.832;2024-01-25T00:39:27;38.91;36.77;42.70;;
69668;Laerm;66534;52.370;4.832;2024-01-25T00:39:57;40.71;36.79;47.42;;
69668;Laerm;66534;52.370;4.832;2024-01-25T00:40:28;42.48;39.07;51.59;;
69668;Laerm;66534;52.370;4.832;2024-01-25T00:40:58;41.24;37.27;53.25;;
69668;Laerm;66534;52.370;4.832;2024-01-25T00:41:28;42.82;39.19;47.64;;
69668;Laerm;66534;52.370;4.832;2024-01-25T00:42:04;40.97;37.99;50.61;;
69668;Laerm;66534;52.370;4.832;2024-01-25T00:42:45;44.25;38.59;53.22;;
69668;Laerm;66534;52.370;4.832;2024-01-25T00:43:25;45.35;39.08;53.76;;
69668;Laerm;66534;52.370;4.832;2024-01-25T00:43:56;40.60;38.37;43.87;;
69668;Laerm;66534;52.370;4.832;2024-01-25T00:44:26;41.68;37.32;48.33;;
69668;Laerm;66534;52.370;4.832;2024-01-25T00:44:57;42.13;37.50;46.46;;
69668;Laerm;66534;52.370;4.832;2024-01-25T00:45:28;38.31;36.13;45.99;;
69668;Laerm;66534;52.370;4.832;2024-01-25T00:45:58;40.44;37.76;48.31;;
69668;Laerm;66534;52.370;4.832;2024-01-25T00:46:29;41.96;38.07;48.96;;
69668;Laerm;66534;52.370;4.832;2024-01-25T00:46:59;42.19;37.63;53.67;;
69668;Laerm;66534;52.370;4.832;2024-01-25T00:47:29;39.31;37.40;46.86;;
69668;Laerm;66534;52.370;4.832;2024-01-25T00:48:00;40.14;36.76;52.30;;
69668;Laerm;66534;52.370;4.832;2024-01-25T00:48:30;43.39;38.82;47.44;;
69668;Laerm;66534;52.370;4.832;2024-01-25T00:49:01;41.45;37.30;45.83;;
69668;Laerm;66534;52.370;4.832;2024-01-25T00:49:31;44.31;37.89;52.64;;
69668;Laerm;66534;52.370;4.832;2024-01-25T00:50:01;39.16;36.72;42.76;;
69668;Laerm;66534;52.370;4.832;2024-01-25T00:50:32;41.64;37.62;49.63;;
69668;Laerm;66534;52.370;4.832;2024-01-25T00:51:02;44.89;38.77;55.87;;
69668;Laerm;66534;52.370;4.832;2024-01-25T00:51:34;44.09;39.57;48.13;;
69668;Laerm;66534;52.370;4.832;2024-01-25T00:52:06;42.89;38.58;51.25;;
69668;Laerm;66534;52.370;4.832;2024-01-25T00:52:37;41.56;37.85;48.42;;
69668;Laerm;66534;52.370;4.832;2024-01-25T00:53:07;41.87;38.67;52.55;;
69668;Laerm;66534;52.370;4.832;2024-01-25T00:53:37;46.11;37.96;54.57;;
69668;Laerm;66534;52.370;4.832;2024-01-25T00:54:08;38.40;35.86;44.95;;
69668;Laerm;66534;52.370;4.832;2024-01-25T00:54:38;41.31;37.12;47.71;;
69668;Laerm;66534;52.370;4.832;2024-01-25T00:55:09;40.49;37.50;46.08;;
69668;Laerm;66534;52.370;4.832;2024-01-25T00:55:39;39.96;37.22;45.59;;
69668;Laerm;66534;52.370;4.832;2024-01-25T00:56:11;39.21;36.94;47.20;;
69668;Laerm;66534;52.370;4.832;2024-01-25T00:56:42;43.51;37.10;57.34;;
69668;Laerm;66534;52.370;4.832;2024-01-25T00:57:12;46.35;38.66;59.05;;
69668;Laerm;66534;52.370;4.832;2024-01-25T00:57:42;41.81;36.40;48.18;;
69668;Laerm;66534;52.370;4.832;2024-01-25T00:58:13;38.66;36.84;41.68;;
69668;Laerm;66534;52.370;4.832;2024-01-25T00:58:43;41.84;37.50;51.74;;
69668;Laerm;66534;52.370;4.832;2024-01-25T00:59:13;39.33;36.79;47.94;;
69668;Laerm;66534;52.370;4.832;2024-01-25T00:59:44;39.00;36.36;53.84;;
69668;Laerm;66534;52.370;4.832;2024-01-25T01:00:14;38.38;36.07;46.26;;
69668;Laerm;66534;52.370;4.832;2024-01-25T01:00:45;38.69;36.12;42.67;;
69668;Laerm;66534;52.370;4.832;2024-01-25T01:01:15;37.91;35.84;45.95;;
69668;Laerm;66534;52.370;4.832;2024-01-25T01:01:46;39.35;36.18;44.63;;
69668;Laerm;66534;52.370;4.832;2024-01-25T01:02:17;40.46;37.17;54.89;;
69668;Laerm;66534;52.370;4.832;2024-01-25T01:02:50;41.88;36.71;50.96;;
69668;Laerm;66534;52.370;4.832;2024-01-25T01:03:20;46.84;37.66;57.85;;
69668;Laerm;66534;52.370;4.832;2024-01-25T01:03:51;43.22;40.17;49.45;;
69668;Laerm;66534;52.370;4.832;2024-01-25T01:04:22;45.71;39.70;55.89;;
69668;Laerm;66534;52.370;4.832;2024-01-25T01:04:53;42.82;37.56;50.62;;
69668;Laerm;66534;52.370;4.832;2024-01-25T01:05:23;39.31;37.39;44.31;;
69668;Laerm;66534;52.370;4.832;2024-01-25T01:05:54;40.61;37.35;46.46;;
69668;Laerm;66534;52.370;4.832;2024-01-25T01:06:24;40.04;36.80;47.62;;
69668;Laerm;66534;52.370;4.832;2024-01-25T01:06:55;42.30;37.84;47.37;;
69668;Laerm;66534;52.370;4.832;2024-01-25T01:07:25;40.43;37.77;46.14;;
69668;Laerm;66534;52.370;4.832;2024-01-25T01:07:55;39.90;37.67;43.80;;
69668;Laerm;66534;52.370;4.832;2024-01-25T01:08:26;42.46;37.35;51.42;;
69668;Laerm;66534;52.370;4.832;2024-01-25T01:08:56;43.58;38.51;48.66;;
69668;Laerm;66534;52.370;4.832;2024-01-25T01:09:27;41.19;38.37;45.83;;
69668;Laerm;66534;52.370;4.832;2024-01-25T01:09:57;41.14;37.31;46.86;;
69668;Laerm;66534;52.370;4.832;2024-01-25T01:10:27;40.06;36.09;45.79;;
69668;Laerm;66534;52.370;4.832;2024-01-25T01:10:58;40.53;38.05;44.17;;
69668;Laerm;66534;52.370;4.832;2024-01-25T01:11:28;40.09;37.33;45.39;;
69668;Laerm;66534;52.370;4.832;2024-01-25T01:11:58;40.58;36.69;48.88;;
69668;Laerm;66534;52.370;4.832;2024-01-25T01:12:29;47.78;38.00;57.01;;
69668;Laerm;66534;52.370;4.832;2024-01-25T01:13:00;39.25;36.93;43.11;;
69668;Laerm;66534;52.370;4.832;2024-01-25T01:13:30;41.91;37.69;47.31;;
69668;Laerm;66534;52.370;4.832;2024-01-25T01:14:00;42.62;37.44;55.78;;
69668;Laerm;66534;52.370;4.832;2024-01-25T01:14:30;45.96;40.89;49.83;;
69668;Laerm;66534;52.370;4.832;2024-01-25T01:15:01;41.17;38.24;47.52;;
69668;Laerm;66534;52.370;4.832;2024-01-25T01:15:31;43.20;37.34;56.60;;
69668;Laerm;66534;52.370;4.832;2024-01-25T01:16:01;39.75;36.86;44.81;;
69668;Laerm;66534;52.370;4.832;2024-01-25T01:16:31;43.01;36.88;52.27;;
69668;Laerm;66534;52.370;4.832;2024-01-25T01:17:03;40.02;36.93;46.28;;
69668;Laerm;66534;52.370;4.832;2024-01-25T01:17:33;39.00;36.38;41.90;;
69668;Laerm;66534;52.370;4.832;2024-01-25T01:18:04;38.43;36.30;45.65;;
69668;Laerm;66534;52.370;4.832;2024-01-25T01:18:35;39.08;36.01;47.07;;
69668;Laerm;66534;52.370;4.832;2024-01-25T01:19:05;37.43;34.87;43.45;;
69668;Laerm;66534;52.370;4.832;2024-01-25T01:19:36;37.11;34.82;40.60;;
69668;Laerm;66534;52.370;4.832;2024-01-25T01:20:07;43.92;36.25;57.02;;
69668;Laerm;66534;52.370;4.832;2024-01-25T01:20:37;38.42;35.92;43.53;;
69668;Laerm;66534;52.370;4.832;2024-01-25T01:21:08;40.04;36.38;45.32;;
69668;Laerm;66534;52.370;4.832;2024-01-25T01:21:38;38.98;36.53;45.07;;
69668;Laerm;66534;52.370;4.832;2024-01-25T01:22:11;38.93;36.85;41.91;;
69668;Laerm;66534;52.370;4.832;2024-01-25T01:22:41;39.50;35.85;46.73;;
69668;Laerm;66534;52.370;4.832;2024-01-25T01:23:11;44.11;38.51;50.69;;
69668;Laerm;66534;52.370;4.832;2024-01-25T01:23:42;42.56;37.69;48.12;;
69668;Laerm;66534;52.370;4.832;2024-01-25T01:24:12;37.60;35.64;43.71;;
69668;Laerm;66534;52.370;4.832;2024-01-25T01:24:42;37.65;34.38;42.44;;
69668;Laerm;66534;52.370;4.832;2024-01-25T01:25:13;35.97;33.67;42.71;;
69668;Laerm;66534;52.370;4.832;2024-01-25T01:25:43;36.45;34.23;45.42;;
69668;Laerm;66534;52.370;4.832;2024-01-25T01:26:14;37.16;35.02;40.38;;
69668;Laerm;66534;52.370;4.832;2024-01-25T01:26:44;38.17;35.87;42.53;;
69668;Laerm;66534;52.370;4.832;2024-01-25T01:27:16;41.06;36.55;48.34;;
69668;Laerm;66534;52.370;4.832;2024-01-25T01:27:46;41.05;36.73;46.56;;
69668;Laerm;66534;52.370;4.832;2024-01-25T01:28:17;42.08;36.77;47.63;;
69668;Laerm;66534;52.370;4.832;2024-01-25T01:28:47;41.18;35.23;49.88;;
69668;Laerm;66534;52.370;4.832;2024-01-25T01:29:17;39.79;36.10;45.16;;
69668;Laerm;66534;52.370;4.832;2024-01-25T01:29:48;38.54;35.53;43.12;;
69668;Laerm;66534;52.370;4.832;2024-01-25T01:30:18;38.54;35.92;41.46;;
69668;Laerm;66534;52.370;4.832;2024-01-25T01:30:48;38.25;35.90;45.75;;
69668;Laerm;66534;52.370;4.832;2024-01-25T01:31:19;44.89;36.51;58.39;;
69668;Laerm;66534;52.370;4.832;2024-01-25T01:31:49;40.15;36.51;45.66;;
69668;Laerm;66534;52.370;4.832;2024-01-25T01:32:20;37.94;35.25;44.73;;
69668;Laerm;66534;52.370;4.832;2024-01-25T01:32:50;39.91;36.62;44.83;;
69668;Laerm;66534;52.370;4.832;2024-01-25T01:33:20;39.87;35.24;45.10;;
69668;Laerm;66534;52.370;4.832;2024-01-25T01:33:50;37.83;34.70;42.51;;
69668;Laerm;66534;52.370;4.832;2024-01-25T01:34:21;42.60;36.91;45.69;;
69668;Laerm;66534;52.370;4.832;2024-01-25T01:34:51;40.35;36.45;45.95;;
69668;Laerm;66534;52.370;4.832;2024-01-25T01:35:21;37.43;35.18;43.99;;
69668;Laerm;66534;52.370;4.832;2024-01-25T01:35:51;39.02;35.19;44.63;;
69668;Laerm;66534;52.370;4.832;2024-01-25T01:36:22;39.74;36.83;43.72;;
69668;Laerm;66534;52.370;4.832;2024-01-25T01:36:52;37.49;35.21;40.80;;
69668;Laerm;66534;52.370;4.832;2024-01-25T01:37:22;38.62;34.92;49.78;;
69668;Laerm;66534;52.370;4.832;2024-01-25T01:37:52;38.68;35.89;45.82;;
69668;Laerm;66534;52.370;4.832;2024-01-25T01:38:24;38.91;35.38;46.16;;
69668;Laerm;66534;52.370;4.832;2024-01-25T01:38:54;36.93;34.91;41.04;;
69668;Laerm;66534;52.370;4.832;2024-01-25T01:39:24;40.57;35.72;51.01;;
69668;Laerm;66534;52.370;4.832;2024-01-25T01:39:55;38.65;36.47;45.68;;
69668;Laerm;66534;52.370;4.832;2024-01-25T01:40:25;45.65;36.68;57.25;;
69668;Laerm;66534;52.370;4.832;2024-01-25T01:40:56;42.50;38.44;47.90;;
69668;Laerm;66534;52.370;4.832;2024-01-25T01:41:26;39.61;35.45;52.07;;
69668;Laerm;66534;52.370;4.832;2024-01-25T01:41:56;37.15;35.07;40.45;;
69668;Laerm;66534;52.370;4.832;2024-01-25T01:42:27;36.76;34.89;39.26;;
69668;Laerm;66534;52.370;4.832;2024-01-25T01:43:00;38.32;34.64;43.32;;
69668;Laerm;66534;52.370;4.832;2024-01-25T01:43:31;36.57;34.24;41.43;;
69668;Laerm;66534;52.370;4.832;2024-01-25T01:44:01;36.82;34.34;47.34;;
69668;Laerm;66534;52.370;4.832;2024-01-25T01:44:32;37.26;34.94;40.66;;
69668;Laerm;66534;52.370;4.832;2024-01-25T01:45:02;40.48;36.00;47.59;;
69668;Laerm;66534;52.370;4.832;2024-01-25T01:45:32;38.22;35.35;43.76;;
69668;Laerm;66534;52.370;4.832;2024-01-25T01:46:12;36.55;34.62;38.47;;
69668;Laerm;66534;52.370;4.832;2024-01-25T01:46:47;36.30;34.30;38.82;;
69668;Laerm;66534;52.370;4.832;2024-01-25T01:47:17;36.99;34.80;43.94;;
69668;Laerm;66534;52.370;4.832;2024-01-25T01:47:47;37.95;35.11;41.86;;
69668;Laerm;66534;52.370;4.832;2024-01-25T01:48:18;38.65;35.46;46.17;;
69668;Laerm;66534;52.370;4.832;2024-01-25T01:48:48;38.43;35.25;44.99;;
69668;Laerm;66534;52.370;4.832;2024-01-25T01:49:18;38.72;35.33;45.65;;
69668;Laerm;66534;52.370;4.832;2024-01-25T01:49:49;39.73;36.02;47.14;;
69668;Laerm;66534;52.370;4.832;2024-01-25T01:50:19;37.55;35.13;40.63;;
69668;Laerm;66534;52.370;4.832;2024-01-25T01:50:49;40.17;35.21;49.27;;
69668;Laerm;66534;52.370;4.832;2024-01-25T01:51:20;39.42;37.17;46.14;;
69668;Laerm;66534;52.370;4.832;2024-01-25T01:51:50;38.77;34.69;46.14;;
69668;Laerm;66534;52.370;4.832;2024-01-25T01:52:20;36.75;34.40;45.36;;
69668;Laerm;66534;52.370;4.832;2024-01-25T01:52:51;36.79;34.25;41.44;;
69668;Laerm;66534;52.370;4.832;2024-01-25T01:53:22;36.64;34.43;45.81;;
69668;Laerm;66534;52.370;4.832;2024-01-25T01:53:52;42.11;35.34;50.98;;
69668;Laerm;66534;52.370;4.832;2024-01-25T01:54:23;42.91;35.57;51.12;;
69668;Laerm;66534;52.370;4.832;2024-01-25T01:54:54;36.91;34.93;42.53;;
69668;Laerm;66534;52.370;4.832;2024-01-25T01:55:26;39.30;35.24;51.69;;
69668;Laerm;66534;52.370;4.832;2024-01-25T01:55:56;38.71;35.05;44.89;;
69668;Laerm;66534;52.370;4.832;2024-01-25T01:56:27;40.96;37.44;46.97;;
69668;Laerm;66534;52.370;4.832;2024-01-25T01:56:58;41.03;36.85;43.92;;
69668;Laerm;66534;52.370;4.832;2024-01-25T01:57:28;38.40;36.04;41.03;;
69668;Laerm;66534;52.370;4.832;2024-01-25T01:57:59;40.66;36.42;47.37;;
69668;Laerm;66534;52.370;4.832;2024-01-25T01:58:30;37.66;35.05;40.59;;
69668;Laerm;66534;52.370;4.832;2024-01-25T01:59:01;36.66;34.85;44.66;;
69668;Laerm;66534;52.370;4.832;2024-01-25T01:59:32;37.17;35.30;39.34;;
69668;Laerm;66534;52.370;4.832;2024-01-25T02:00:02;37.60;35.13;42.08;;
69668;Laerm;66534;52.370;4.832;2024-01-25T02:00:34;39.06;34.83;42.32;;
69668;Laerm;66534;52.370;4.832;2024-01-25T02:01:05;42.05;36.09;49.10;;
69668;Laerm;66534;52.370;4.832;2024-01-25T02:01:36;42.83;37.47;52.27;;
69668;Laerm;66534;52.370;4.832;2024-01-25T02:02:06;53.21;37.05;60.23;;
69668;Laerm;66534;52.370;4.832;2024-01-25T02:02:37;37.33;35.18;40.32;;
69668;Laerm;66534;52.370;4.832;2024-01-25T02:03:07;40.68;36.55;46.43;;
69668;Laerm;66534;52.370;4.832;2024-01-25T02:03:38;38.67;36.04;43.74;;
69668;Laerm;66534;52.370;4.832;2024-01-25T02:04:08;39.60;35.90;44.39;;
69668;Laerm;66534;52.370;4.832;2024-01-25T02:04:38;38.63;35.57;48.50;;
69668;Laerm;66534;52.370;4.832;2024-01-25T02:05:09;37.08;35.30;42.32;;
69668;Laerm;66534;52.370;4.832;2024-01-25T02:05:41;36.31;33.59;38.96;;
69668;Laerm;66534;52.370;4.832;2024-01-25T02:06:11;36.12;34.28;42.74;;
69668;Laerm;66534;52.370;4.832;2024-01-25T02:06:42;36.22;34.01;40.43;;
69668;Laerm;66534;52.370;4.832;2024-01-25T02:07:12;36.94;33.98;46.34;;
69668;Laerm;66534;52.370;4.832;2024-01-25T02:07:44;37.23;34.63;42.25;;
69668;Laerm;66534;52.370;4.832;2024-01-25T02:08:14;41.45;36.66;49.60;;
69668;Laerm;66534;52.370;4.832;2024-01-25T02:08:45;38.36;35.23;47.30;;
69668;Laerm;66534;52.370;4.832;2024-01-25T02:09:16;36.90;34.46;43.58;;
69668;Laerm;66534;52.370;4.832;2024-01-25T02:09:46;36.20;34.30;41.96;;
69668;Laerm;66534;52.370;4.832;2024-01-25T02:10:16;36.40;34.35;42.64;;
69668;Laerm;66534;52.370;4.832;2024-01-25T02:10:46;36.71;34.34;44.35;;
69668;Laerm;66534;52.370;4.832;2024-01-25T02:11:17;47.12;35.38;57.80;;
69668;Laerm;66534;52.370;4.832;2024-01-25T02:11:47;40.20;36.01;49.40;;
69668;Laerm;66534;52.370;4.832;2024-01-25T02:12:17;38.10;35.87;43.33;;
69668;Laerm;66534;52.370;4.832;2024-01-25T02:12:48;41.09;37.74;45.92;;
69668;Laerm;66534;52.370;4.832;2024-01-25T02:13:18;42.95;38.90;54.16;;
69668;Laerm;66534;52.370;4.832;2024-01-25T02:13:48;42.70;39.03;47.63;;
69668;Laerm;66534;52.370;4.832;2024-01-25T02:14:19;40.87;36.11;46.10;;
69668;Laerm;66534;52.370;4.832;2024-01-25T02:14:49;41.03;36.19;52.37;;
69668;Laerm;66534;52.370;4.832;2024-01-25T02:15:19;36.84;34.84;42.43;;
69668;Laerm;66534;52.370;4.832;2024-01-25T02:15:50;38.14;35.24;44.58;;
69668;Laerm;66534;52.370;4.832;2024-01-25T02:16:20;38.81;36.52;42.56;;
69668;Laerm;66534;52.370;4.832;2024-01-25T02:16:50;39.52;35.40;46.71;;
69668;Laerm;66534;52.370;4.832;2024-01-25T02:17:20;38.19;35.25;42.44;;
69668;Laerm;66534;52.370;4.832;2024-01-25T02:17:51;36.59;34.57;41.44;;
69668;Laerm;66534;52.370;4.832;2024-01-25T02:18:21;36.24;34.31;40.26;;
69668;Laerm;66534;52.370;4.832;2024-01-25T02:18:52;37.26;34.19;53.38;;
69668;Laerm;66534;52.370;4.832;2024-01-25T02:19:24;41.30;36.69;48.46;;
69668;Laerm;66534;52.370;4.832;2024-01-25T02:19:54;37.24;35.11;45.16;;
69668;Laerm;66534;52.370;4.832;2024-01-25T02:20:25;36.70;34.84;42.78;;
69668;Laerm;66534;52.370;4.832;2024-01-25T02:20:55;37.01;35.01;39.11;;
69668;Laerm;66534;52.370;4.832;2024-01-25T02:21:25;40.31;36.52;46.10;;
69668;Laerm;66534;52.370;4.832;2024-01-25T02:21:56;38.56;35.27;43.42;;
69668;Laerm;66534;52.370;4.832;2024-01-25T02:22:27;36.45;34.60;43.38;;
69668;Laerm;66534;52.370;4.832;2024-01-25T02:22:57;36.40;34.39;42.47;;
69668;Laerm;66534;52.370;4.832;2024-01-25T02:23:28;37.11;35.08;40.52;;
69668;Laerm;66534;52.370;4.832;2024-01-25T02:23:58;41.61;36.32;51.40;;
69668;Laerm;66534;52.370;4.832;2024-01-25T02:24:28;36.83;34.68;40.46;;
69668;Laerm;66534;52.370;4.832;2024-01-25T02:24:58;36.17;34.05;41.97;;
69668;Laerm;66534;52.370;4.832;2024-01-25T02:25:28;36.95;34.96;44.76;;
69668;Laerm;66534;52.370;4.832;2024-01-25T02:25:59;43.40;38.31;50.06;;
69668;Laerm;66534;52.370;4.832;2024-01-25T02:26:29;41.66;35.68;53.10;;
69668;Laerm;66534;52.370;4.832;2024-01-25T02:26:59;38.90;35.59;46.61;;
69668;Laerm;66534;52.370;4.832;2024-01-25T02:27:30;48.34;38.74;62.18;;
69668;Laerm;66534;52.370;4.832;2024-01-25T02:28:00;40.25;35.61;46.60;;
69668;Laerm;66534;52.370;4.832;2024-01-25T02:28:30;36.43;34.42;39.86;;
69668;Laerm;66534;52.370;4.832;2024-01-25T02:29:01;36.49;34.42;39.13;;
69668;Laerm;66534;52.370;4.832;2024-01-25T02:29:33;39.39;35.57;44.06;;
69668;Laerm;66534;52.370;4.832;2024-01-25T02:30:03;39.21;35.33;46.18;;
69668;Laerm;66534;52.370;4.832;2024-01-25T02:30:33;37.40;34.87;40.81;;
69668;Laerm;66534;52.370;4.832;2024-01-25T02:31:04;36.98;34.62;40.61;;
69668;Laerm;66534;52.370;4.832;2024-01-25T02:31:34;43.95;35.14;60.06;;
69668;Laerm;66534;52.370;4.832;2024-01-25T02:32:04;38.14;34.56;42.80;;
69668;Laerm;66534;52.370;4.832;2024-01-25T02:32:35;36.66;34.53;38.81;;
69668;Laerm;66534;52.370;4.832;2024-01-25T02:33:05;38.61;35.23;45.98;;
69668;Laerm;66534;52.370;4.832;2024-01-25T02:33:35;38.95;35.83;50.57;;
69668;Laerm;66534;52.370;4.832;2024-01-25T02:34:05;37.26;34.26;42.09;;
69668;Laerm;66534;52.370;4.832;2024-01-25T02:34:36;39.58;35.82;50.64;;
69668;Laerm;66534;52.370;4.832;2024-01-25T02:35:06;38.27;35.68;42.33;;
69668;Laerm;66534;52.370;4.832;2024-01-25T02:35:37;39.86;35.24;49.39;;
69668;Laerm;66534;52.370;4.832;2024-01-25T02:36:07;37.01;35.22;39.82;;
69668;Laerm;66534;52.370;4.832;2024-01-25T02:36:37;40.61;36.45;47.69;;
69668;Laerm;66534;52.370;4.832;2024-01-25T02:37:08;41.91;37.28;48.09;;
69668;Laerm;66534;52.370;4.832;2024-01-25T02:37:38;39.81;36.79;42.88;;
69668;Laerm;66534;52.370;4.832;2024-01-25T02:38:08;40.61;37.89;46.48;;
69668;Laerm;66534;52.370;4.832;2024-01-25T02:38:38;52.58;37.52;59.90;;
69668;Laerm;66534;52.370;4.832;2024-01-25T02:39:09;37.30;34.94;43.58;;
69668;Laerm;66534;52.370;4.832;2024-01-25T02:39:39;36.75;34.96;40.79;;
69668;Laerm;66534;52.370;4.832;2024-01-25T02:40:09;36.88;34.85;39.97;;
69668;Laerm;66534;52.370;4.832;2024-01-25T02:40:40;38.02;35.26;40.77;;
69668;Laerm;66534;52.370;4.832;2024-01-25T02:41:10;44.11;36.64;51.46;;
69668;Laerm;66534;52.370;4.832;2024-01-25T02:41:40;63.51;46.22;74.37;;
69668;Laerm;66534;52.370;4.832;2024-01-25T02:42:11;52.41;36.83;61.80;;
69668;Laerm;66534;52.370;4.832;2024-01-25T02:42:42;37.09;35.17;40.01;;
69668;Laerm;66534;52.370;4.832;2024-01-25T02:43:12;37.32;34.90;42.41;;
69668;Laerm;66534;52.370;4.832;2024-01-25T02:43:42;37.34;35.30;48.99;;
69668;Laerm;66534;52.370;4.832;2024-01-25T02:44:13;38.62;35.22;49.89;;
69668;Laerm;66534;52.370;4.832;2024-01-25T02:44:43;40.21;35.78;44.86;;
69668;Laerm;66534;52.370;4.832;2024-01-25T02:45:13;40.75;37.49;45.83;;
69668;Laerm;66534;52.370;4.832;2024-01-25T02:45:43;38.72;35.49;44.98;;
69668;Laerm;66534;52.370;4.832;2024-01-25T02:46:14;37.46;34.55;40.46;;
69668;Laerm;66534;52.370;4.832;2024-01-25T02:46:44;37.92;34.69;45.29;;
69668;Laerm;66534;52.370;4.832;2024-01-25T02:47:14;37.56;35.56;40.43;;
69668;Laerm;66534;52.370;4.832;2024-01-25T02:47:45;37.91;35.17;42.59;;
69668;Laerm;66534;52.370;4.832;2024-01-25T02:48:16;36.87;34.69;38.83;;
69668;Laerm;66534;52.370;4.832;2024-01-25T02:48:46;36.35;34.22;38.02;;
69668;Laerm;66534;52.370;4.832;2024-01-25T02:49:16;36.41;34.14;40.48;;
69668;Laerm;66534;52.370;4.832;2024-01-25T02:49:47;37.91;34.38;52.28;;
69668;Laerm;66534;52.370;4.832;2024-01-25T02:50:17;43.33;36.04;56.45;;
69668;Laerm;66534;52.370;4.832;2024-01-25T02:50:47;43.01;39.50;50.31;;
69668;Laerm;66534;52.370;4.832;2024-01-25T02:51:17;40.38;36.56;46.01;;